N3113F KDSM-KGGI
Flight info
| Callsign | N3113F |
|---|---|
| Flight time | 0h 42m |
| Altitude | 5500 |
| Route | DCT |
| Aircraft | J3/L-Y/EB2 |
Departure
| Time | 2026-04-25 21:19 |
|---|---|
| Airport | Des Moines International Airport (KDSM) |
Arrival
| Time | 2026-04-25 22:02 |
|---|---|
| Airport | Grinnell Regional Airport (KGGI) |
| Time | Latitude | Longitude | Altitude | Speed | Heading |
|---|---|---|---|---|---|
| 2026-04-25 20:46 | 41.52952 | -93.66068 | 917 ft | 0 kts | 213° |
| 2026-04-25 21:00 | 41.52951 | -93.66083 | 916 ft | 2 kts | 330° |
| 2026-04-25 21:01 | 41.52976 | -93.66079 | 916 ft | 5 kts | 13° |
| 2026-04-25 21:01 | 41.53010 | -93.66064 | 915 ft | 4 kts | 39° |
| 2026-04-25 21:01 | 41.53035 | -93.66053 | 915 ft | 6 kts | 344° |
| 2026-04-25 21:01 | 41.53085 | -93.66060 | 909 ft | 8 kts | 7° |
| 2026-04-25 21:02 | 41.53122 | -93.66034 | 913 ft | 5 kts | 43° |
| 2026-04-25 21:02 | 41.53144 | -93.65994 | 913 ft | 5 kts | 33° |
| 2026-04-25 21:02 | 41.53159 | -93.65965 | 913 ft | 4 kts | 63° |
| 2026-04-25 21:02 | 41.53181 | -93.65929 | 913 ft | 6 kts | 36° |
| 2026-04-25 21:03 | 41.53199 | -93.65894 | 914 ft | 5 kts | 58° |
| 2026-04-25 21:03 | 41.53218 | -93.65867 | 914 ft | 4 kts | 59° |
| 2026-04-25 21:03 | 41.53233 | -93.65835 | 914 ft | 4 kts | 51° |
| 2026-04-25 21:03 | 41.53256 | -93.65796 | 913 ft | 5 kts | 56° |
| 2026-04-25 21:04 | 41.53276 | -93.65754 | 911 ft | 3 kts | 31° |
| 2026-04-25 21:04 | 41.53280 | -93.65750 | 911 ft | 0 kts | 54° |
| 2026-04-25 21:04 | 41.53301 | -93.65713 | 909 ft | 7 kts | 51° |
| 2026-04-25 21:05 | 41.53324 | -93.65668 | 909 ft | 6 kts | 51° |
| 2026-04-25 21:05 | 41.53348 | -93.65629 | 909 ft | 4 kts | 63° |
| 2026-04-25 21:05 | 41.53365 | -93.65592 | 909 ft | 5 kts | 43° |
| 2026-04-25 21:05 | 41.53391 | -93.65568 | 910 ft | 4 kts | 19° |
| 2026-04-25 21:06 | 41.53419 | -93.65565 | 910 ft | 2 kts | 341° |
| 2026-04-25 21:06 | 41.53422 | -93.65567 | 909 ft | 0 kts | 325° |
| 2026-04-25 21:06 | 41.53441 | -93.65589 | 909 ft | 8 kts | 315° |
| 2026-04-25 21:06 | 41.53464 | -93.65622 | 910 ft | 7 kts | 301° |
| 2026-04-25 21:07 | 41.53499 | -93.65674 | 910 ft | 5 kts | 294° |
| 2026-04-25 21:07 | 41.53521 | -93.65710 | 909 ft | 6 kts | 312° |
| 2026-04-25 21:07 | 41.53555 | -93.65761 | 908 ft | 9 kts | 307° |
| 2026-04-25 21:07 | 41.53589 | -93.65814 | 907 ft | 8 kts | 323° |
| 2026-04-25 21:08 | 41.53627 | -93.65868 | 907 ft | 7 kts | 302° |
| 2026-04-25 21:08 | 41.53662 | -93.65919 | 907 ft | 7 kts | 321° |
| 2026-04-25 21:08 | 41.53696 | -93.65963 | 907 ft | 7 kts | 315° |
| 2026-04-25 21:08 | 41.53726 | -93.66006 | 907 ft | 7 kts | 306° |
| 2026-04-25 21:09 | 41.53788 | -93.66102 | 906 ft | 6 kts | 310° |
| 2026-04-25 21:09 | 41.53806 | -93.66127 | 907 ft | 3 kts | 310° |
| 2026-04-25 21:09 | 41.53832 | -93.66167 | 908 ft | 8 kts | 313° |
| 2026-04-25 21:10 | 41.53864 | -93.66215 | 909 ft | 7 kts | 329° |
| 2026-04-25 21:10 | 41.53897 | -93.66260 | 910 ft | 6 kts | 311° |
| 2026-04-25 21:10 | 41.53929 | -93.66308 | 910 ft | 6 kts | 300° |
| 2026-04-25 21:10 | 41.53959 | -93.66350 | 911 ft | 7 kts | 311° |
| 2026-04-25 21:11 | 41.53991 | -93.66398 | 913 ft | 7 kts | 307° |
| 2026-04-25 21:11 | 41.54025 | -93.66446 | 914 ft | 8 kts | 311° |
| 2026-04-25 21:11 | 41.54063 | -93.66503 | 914 ft | 7 kts | 313° |
| 2026-04-25 21:11 | 41.54096 | -93.66550 | 913 ft | 8 kts | 311° |
| 2026-04-25 21:12 | 41.54135 | -93.66606 | 913 ft | 9 kts | 310° |
| 2026-04-25 21:12 | 41.54170 | -93.66658 | 913 ft | 6 kts | 309° |
| 2026-04-25 21:12 | 41.54202 | -93.66706 | 913 ft | 7 kts | 310° |
| 2026-04-25 21:12 | 41.54223 | -93.66738 | 913 ft | 8 kts | 312° |
| 2026-04-25 21:13 | 41.54272 | -93.66809 | 911 ft | 8 kts | 313° |
| 2026-04-25 21:13 | 41.54315 | -93.66871 | 911 ft | 9 kts | 313° |
| 2026-04-25 21:13 | 41.54351 | -93.66927 | 912 ft | 7 kts | 310° |
| 2026-04-25 21:13 | 41.54384 | -93.66971 | 912 ft | 8 kts | 311° |
| 2026-04-25 21:14 | 41.54416 | -93.67015 | 912 ft | 6 kts | 321° |
| 2026-04-25 21:14 | 41.54450 | -93.67067 | 912 ft | 9 kts | 311° |
| 2026-04-25 21:14 | 41.54482 | -93.67116 | 913 ft | 7 kts | 305° |
| 2026-04-25 21:14 | 41.54520 | -93.67169 | 914 ft | 8 kts | 312° |
| 2026-04-25 21:15 | 41.54550 | -93.67214 | 916 ft | 7 kts | 311° |
| 2026-04-25 21:15 | 41.54570 | -93.67249 | 917 ft | 6 kts | 308° |
| 2026-04-25 21:15 | 41.54600 | -93.67288 | 917 ft | 5 kts | 314° |
| 2026-04-25 21:15 | 41.54615 | -93.67312 | 917 ft | 5 kts | 289° |
| 2026-04-25 21:16 | 41.54617 | -93.67356 | 917 ft | 2 kts | 243° |
| 2026-04-25 21:16 | 41.54613 | -93.67362 | 917 ft | 0 kts | 223° |
| 2026-04-25 21:17 | 41.54613 | -93.67363 | 917 ft | 1 kts | 223° |
| 2026-04-25 21:17 | 41.54585 | -93.67395 | 917 ft | 5 kts | 220° |
| 2026-04-25 21:17 | 41.54547 | -93.67407 | 918 ft | 6 kts | 171° |
| 2026-04-25 21:18 | 41.54530 | -93.67396 | 918 ft | 0 kts | 131° |
| 2026-04-25 21:18 | 41.54432 | -93.67266 | 949 ft | 45 kts | 134° |
| 2026-04-25 21:18 | 41.54201 | -93.66978 | 1218 ft | 47 kts | 121° |
| 2026-04-25 21:19 | 41.54001 | -93.66655 | 1410 ft | 46 kts | 119° |
| 2026-04-25 21:19 | 41.53838 | -93.66319 | 1617 ft | 41 kts | 121° |
| 2026-04-25 21:19 | 41.53819 | -93.65916 | 1771 ft | 51 kts | 77° |
| 2026-04-25 21:19 | 41.53983 | -93.65513 | 1969 ft | 48 kts | 77° |
| 2026-04-25 21:20 | 41.54151 | -93.65117 | 2166 ft | 47 kts | 72° |
| 2026-04-25 21:20 | 41.54252 | -93.64862 | 2256 ft | 47 kts | 79° |
| 2026-04-25 21:20 | 41.54430 | -93.64346 | 2529 ft | 48 kts | 80° |
| 2026-04-25 21:20 | 41.54518 | -93.63915 | 2716 ft | 47 kts | 88° |
| 2026-04-25 21:21 | 41.54635 | -93.63498 | 2847 ft | 50 kts | 81° |
| 2026-04-25 21:21 | 41.54779 | -93.63078 | 2998 ft | 49 kts | 78° |
| 2026-04-25 21:21 | 41.54939 | -93.62693 | 3238 ft | 48 kts | 77° |
| 2026-04-25 21:21 | 41.55068 | -93.62298 | 3514 ft | 45 kts | 81° |
| 2026-04-25 21:22 | 41.55169 | -93.61908 | 3669 ft | 43 kts | 84° |
| 2026-04-25 21:22 | 41.55280 | -93.61538 | 3850 ft | 43 kts | 85° |
| 2026-04-25 21:22 | 41.55388 | -93.61146 | 3996 ft | 43 kts | 86° |
| 2026-04-25 21:22 | 41.55508 | -93.60768 | 4090 ft | 48 kts | 85° |
| 2026-04-25 21:23 | 41.55600 | -93.60337 | 4220 ft | 47 kts | 83° |
| 2026-04-25 21:23 | 41.55688 | -93.59912 | 4411 ft | 47 kts | 83° |
| 2026-04-25 21:23 | 41.55790 | -93.59502 | 4621 ft | 48 kts | 82° |
| 2026-04-25 21:23 | 41.55897 | -93.59110 | 4781 ft | 44 kts | 79° |
| 2026-04-25 21:24 | 41.56033 | -93.58708 | 4885 ft | 49 kts | 82° |
| 2026-04-25 21:24 | 41.56159 | -93.58294 | 4998 ft | 52 kts | 86° |
| 2026-04-25 21:24 | 41.56259 | -93.57847 | 5116 ft | 50 kts | 84° |
| 2026-04-25 21:24 | 41.56366 | -93.57397 | 5292 ft | 49 kts | 83° |
| 2026-04-25 21:25 | 41.56490 | -93.56941 | 5390 ft | 55 kts | 81° |
| 2026-04-25 21:25 | 41.56638 | -93.56467 | 5481 ft | 59 kts | 77° |
| 2026-04-25 21:25 | 41.56797 | -93.55916 | 5448 ft | 65 kts | 82° |
| 2026-04-25 21:25 | 41.56955 | -93.55363 | 5440 ft | 63 kts | 80° |
| 2026-04-25 21:26 | 41.57126 | -93.54812 | 5468 ft | 64 kts | 81° |
| 2026-04-25 21:26 | 41.57304 | -93.54267 | 5425 ft | 67 kts | 74° |
| 2026-04-25 21:26 | 41.57464 | -93.53699 | 5447 ft | 65 kts | 82° |
| 2026-04-25 21:26 | 41.57621 | -93.53111 | 5452 ft | 67 kts | 80° |
| 2026-04-25 21:27 | 41.57786 | -93.52537 | 5410 ft | 65 kts | 79° |
| 2026-04-25 21:27 | 41.57979 | -93.52009 | 5442 ft | 62 kts | 76° |
| 2026-04-25 21:27 | 41.58166 | -93.51487 | 5502 ft | 62 kts | 78° |
| 2026-04-25 21:27 | 41.58350 | -93.50945 | 5479 ft | 67 kts | 76° |
| 2026-04-25 21:28 | 41.58539 | -93.50381 | 5449 ft | 67 kts | 78° |
| 2026-04-25 21:28 | 41.58690 | -93.49802 | 5445 ft | 66 kts | 81° |
| 2026-04-25 21:28 | 41.58855 | -93.49232 | 5474 ft | 63 kts | 85° |
| 2026-04-25 21:28 | 41.58899 | -93.48684 | 5521 ft | 63 kts | 88° |
| 2026-04-25 21:29 | 41.59082 | -93.48119 | 5438 ft | 66 kts | 77° |
| 2026-04-25 21:29 | 41.59258 | -93.47541 | 5436 ft | 66 kts | 80° |
| 2026-04-25 21:29 | 41.59396 | -93.46967 | 5413 ft | 65 kts | 81° |
| 2026-04-25 21:29 | 41.59530 | -93.46413 | 5419 ft | 61 kts | 84° |
| 2026-04-25 21:30 | 41.59681 | -93.45872 | 5372 ft | 63 kts | 81° |
| 2026-04-25 21:30 | 41.59845 | -93.45341 | 5321 ft | 60 kts | 82° |
| 2026-04-25 21:30 | 41.59995 | -93.44824 | 5264 ft | 59 kts | 81° |
| 2026-04-25 21:30 | 41.60089 | -93.44485 | 5291 ft | 58 kts | 81° |
| 2026-04-25 21:31 | 41.60294 | -93.43818 | 5438 ft | 61 kts | 78° |
| 2026-04-25 21:31 | 41.60467 | -93.43295 | 5510 ft | 62 kts | 78° |
| 2026-04-25 21:31 | 41.60639 | -93.42766 | 5606 ft | 63 kts | 77° |
| 2026-04-25 21:31 | 41.60820 | -93.42181 | 5529 ft | 71 kts | 78° |
| 2026-04-25 21:32 | 41.61016 | -93.41581 | 5498 ft | 69 kts | 78° |
| 2026-04-25 21:32 | 41.61211 | -93.41017 | 5506 ft | 66 kts | 76° |
| 2026-04-25 21:32 | 41.61396 | -93.40450 | 5509 ft | 67 kts | 80° |
| 2026-04-25 21:32 | 41.61579 | -93.39869 | 5465 ft | 68 kts | 78° |
| 2026-04-25 21:33 | 41.61779 | -93.39293 | 5469 ft | 68 kts | 74° |
| 2026-04-25 21:33 | 41.61979 | -93.38723 | 5469 ft | 68 kts | 78° |
| 2026-04-25 21:33 | 41.62178 | -93.38156 | 5473 ft | 69 kts | 77° |
| 2026-04-25 21:33 | 41.62361 | -93.37563 | 5418 ft | 67 kts | 82° |
| 2026-04-25 21:34 | 41.62509 | -93.36983 | 5391 ft | 65 kts | 83° |
| 2026-04-25 21:34 | 41.62656 | -93.36416 | 5421 ft | 63 kts | 79° |
| 2026-04-25 21:34 | 41.62765 | -93.36055 | 5465 ft | 63 kts | 80° |
| 2026-04-25 21:34 | 41.62928 | -93.35496 | 5471 ft | 66 kts | 82° |
| 2026-04-25 21:35 | 41.63155 | -93.34717 | 5467 ft | 70 kts | 78° |
| 2026-04-25 21:35 | 41.63284 | -93.34310 | 5461 ft | 70 kts | 76° |
| 2026-04-25 21:35 | 41.63535 | -93.33525 | 5432 ft | 68 kts | 77° |
| 2026-04-25 21:35 | 41.63687 | -93.32922 | 5404 ft | 68 kts | 82° |
| 2026-04-25 21:36 | 41.63782 | -93.32523 | 5405 ft | 69 kts | 84° |
| 2026-04-25 21:36 | 41.63946 | -93.31919 | 5414 ft | 70 kts | 77° |
| 2026-04-25 21:36 | 41.64126 | -93.31316 | 5356 ft | 69 kts | 79° |
| 2026-04-25 21:36 | 41.64306 | -93.30732 | 5325 ft | 65 kts | 79° |
| 2026-04-25 21:37 | 41.64463 | -93.30194 | 5366 ft | 60 kts | 79° |
| 2026-04-25 21:37 | 41.64560 | -93.29852 | 5388 ft | 60 kts | 80° |
| 2026-04-25 21:37 | 41.64758 | -93.29148 | 5457 ft | 62 kts | 79° |
| 2026-04-25 21:37 | 41.64916 | -93.28599 | 5473 ft | 64 kts | 80° |
| 2026-04-25 21:38 | 41.65065 | -93.28031 | 5464 ft | 64 kts | 84° |
| 2026-04-25 21:38 | 41.65231 | -93.27465 | 5458 ft | 67 kts | 78° |
| 2026-04-25 21:38 | 41.65424 | -93.26878 | 5423 ft | 69 kts | 76° |
| 2026-04-25 21:38 | 41.65613 | -93.26284 | 5441 ft | 68 kts | 76° |
| 2026-04-25 21:39 | 41.65814 | -93.25703 | 5454 ft | 69 kts | 76° |
| 2026-04-25 21:39 | 41.66038 | -93.25114 | 5405 ft | 74 kts | 74° |
| 2026-04-25 21:39 | 41.66239 | -93.24511 | 5402 ft | 67 kts | 78° |
| 2026-04-25 21:39 | 41.66421 | -93.23954 | 5423 ft | 65 kts | 79° |
| 2026-04-25 21:40 | 41.66617 | -93.23398 | 5419 ft | 65 kts | 76° |
| 2026-04-25 21:40 | 41.66804 | -93.22846 | 5470 ft | 65 kts | 79° |
| 2026-04-25 21:40 | 41.66959 | -93.22276 | 5499 ft | 67 kts | 80° |
| 2026-04-25 21:40 | 41.67117 | -93.21674 | 5462 ft | 71 kts | 81° |
| 2026-04-25 21:41 | 41.67274 | -93.21051 | 5466 ft | 69 kts | 86° |
| 2026-04-25 21:41 | 41.67449 | -93.20442 | 5437 ft | 69 kts | 78° |
| 2026-04-25 21:41 | 41.67629 | -93.19865 | 5484 ft | 67 kts | 79° |
| 2026-04-25 21:41 | 41.67816 | -93.19277 | 5496 ft | 71 kts | 78° |
| 2026-04-25 21:42 | 41.67998 | -93.18641 | 5435 ft | 73 kts | 81° |
| 2026-04-25 21:42 | 41.68185 | -93.18002 | 5390 ft | 72 kts | 77° |
| 2026-04-25 21:42 | 41.68365 | -93.17402 | 5379 ft | 67 kts | 81° |
| 2026-04-25 21:42 | 41.68528 | -93.16847 | 5395 ft | 63 kts | 82° |
| 2026-04-25 21:43 | 41.68693 | -93.16315 | 5409 ft | 61 kts | 79° |
| 2026-04-25 21:43 | 41.68849 | -93.15792 | 5432 ft | 62 kts | 79° |
| 2026-04-25 21:43 | 41.69003 | -93.15239 | 5435 ft | 64 kts | 81° |
| 2026-04-25 21:43 | 41.69175 | -93.14682 | 5422 ft | 67 kts | 78° |
| 2026-04-25 21:44 | 41.69340 | -93.14103 | 5435 ft | 66 kts | 84° |
| 2026-04-25 21:44 | 41.69505 | -93.13524 | 5436 ft | 67 kts | 80° |
| 2026-04-25 21:44 | 41.69808 | -93.12384 | 5426 ft | 61 kts | 82° |
| 2026-04-25 21:45 | 41.69917 | -93.11832 | 5465 ft | 60 kts | 88° |
| 2026-04-25 21:45 | 41.69970 | -93.11467 | 5483 ft | 61 kts | 89° |
| 2026-04-25 21:45 | 41.70131 | -93.10712 | 5437 ft | 66 kts | 86° |
| 2026-04-25 21:45 | 41.70235 | -93.10117 | 5467 ft | 65 kts | 89° |
| 2026-04-25 21:46 | 41.70327 | -93.09519 | 5468 ft | 67 kts | 87° |
| 2026-04-25 21:46 | 41.70429 | -93.08893 | 5427 ft | 70 kts | 89° |
| 2026-04-25 21:46 | 41.70532 | -93.08266 | 5371 ft | 66 kts | 87° |
| 2026-04-25 21:46 | 41.70627 | -93.07715 | 5399 ft | 56 kts | 87° |
| 2026-04-25 21:47 | 41.70722 | -93.07207 | 5441 ft | 57 kts | 88° |
| 2026-04-25 21:47 | 41.70804 | -93.06665 | 5436 ft | 60 kts | 91° |
| 2026-04-25 21:47 | 41.70912 | -93.06125 | 5437 ft | 60 kts | 86° |
| 2026-04-25 21:47 | 41.71014 | -93.05594 | 5449 ft | 58 kts | 86° |
| 2026-04-25 21:48 | 41.71116 | -93.05068 | 5429 ft | 60 kts | 89° |
| 2026-04-25 21:48 | 41.71233 | -93.04514 | 5425 ft | 63 kts | 77° |
| 2026-04-25 21:48 | 41.71360 | -93.03963 | 5446 ft | 61 kts | 87° |
| 2026-04-25 21:48 | 41.71460 | -93.03421 | 5474 ft | 60 kts | 88° |
| 2026-04-25 21:49 | 41.71528 | -93.02845 | 5436 ft | 64 kts | 91° |
| 2026-04-25 21:49 | 41.71611 | -93.02260 | 5442 ft | 65 kts | 89° |
| 2026-04-25 21:49 | 41.71694 | -93.01655 | 5419 ft | 64 kts | 86° |
| 2026-04-25 21:49 | 41.71790 | -93.01099 | 5474 ft | 61 kts | 87° |
| 2026-04-25 21:50 | 41.71894 | -93.00532 | 5482 ft | 64 kts | 89° |
| 2026-04-25 21:50 | 41.71993 | -92.99933 | 5455 ft | 68 kts | 86° |
| 2026-04-25 21:50 | 41.72103 | -92.99328 | 5425 ft | 67 kts | 89° |
| 2026-04-25 21:50 | 41.72168 | -92.98916 | 5406 ft | 66 kts | 87° |
| 2026-04-25 21:51 | 41.72299 | -92.98158 | 5408 ft | 61 kts | 90° |
| 2026-04-25 21:51 | 41.72373 | -92.97580 | 5401 ft | 63 kts | 93° |
| 2026-04-25 21:51 | 41.72417 | -92.97006 | 5429 ft | 62 kts | 92° |
| 2026-04-25 21:51 | 41.72508 | -92.96430 | 5446 ft | 64 kts | 89° |
| 2026-04-25 21:52 | 41.72596 | -92.95848 | 5460 ft | 63 kts | 90° |
| 2026-04-25 21:52 | 41.72665 | -92.95272 | 5471 ft | 66 kts | 90° |
| 2026-04-25 21:52 | 41.72767 | -92.94667 | 5454 ft | 66 kts | 89° |
| 2026-04-25 21:52 | 41.72877 | -92.94070 | 5436 ft | 65 kts | 89° |
| 2026-04-25 21:53 | 41.72978 | -92.93486 | 5407 ft | 66 kts | 88° |
| 2026-04-25 21:53 | 41.73068 | -92.92902 | 5412 ft | 63 kts | 93° |
| 2026-04-25 21:53 | 41.73115 | -92.92308 | 5390 ft | 65 kts | 91° |
| 2026-04-25 21:53 | 41.73178 | -92.91743 | 5453 ft | 60 kts | 91° |
| 2026-04-25 21:54 | 41.73250 | -92.91179 | 5441 ft | 60 kts | 92° |
| 2026-04-25 21:54 | 41.73311 | -92.90667 | 5291 ft | 53 kts | 93° |
| 2026-04-25 21:54 | 41.73374 | -92.90188 | 5145 ft | 52 kts | 91° |
| 2026-04-25 21:54 | 41.73437 | -92.89732 | 5018 ft | 50 kts | 90° |
| 2026-04-25 21:55 | 41.73511 | -92.89291 | 4908 ft | 46 kts | 86° |
| 2026-04-25 21:55 | 41.73584 | -92.88865 | 4756 ft | 46 kts | 90° |
| 2026-04-25 21:55 | 41.73640 | -92.88437 | 4583 ft | 48 kts | 88° |
| 2026-04-25 21:55 | 41.73712 | -92.88010 | 4451 ft | 46 kts | 88° |
| 2026-04-25 21:56 | 41.73797 | -92.87576 | 4252 ft | 47 kts | 84° |
| 2026-04-25 21:56 | 41.73853 | -92.87297 | 4130 ft | 47 kts | 92° |
| 2026-04-25 21:56 | 41.73978 | -92.86749 | 3912 ft | 45 kts | 85° |
| 2026-04-25 21:56 | 41.74060 | -92.86337 | 3755 ft | 46 kts | 88° |
| 2026-04-25 21:57 | 41.74134 | -92.85930 | 3626 ft | 46 kts | 88° |
| 2026-04-25 21:57 | 41.74190 | -92.85518 | 3493 ft | 45 kts | 91° |
| 2026-04-25 21:57 | 41.74237 | -92.85101 | 3394 ft | 47 kts | 91° |
| 2026-04-25 21:57 | 41.74302 | -92.84682 | 3338 ft | 47 kts | 85° |
| 2026-04-25 21:58 | 41.74377 | -92.84275 | 3304 ft | 41 kts | 89° |
| 2026-04-25 21:58 | 41.74432 | -92.83883 | 3230 ft | 45 kts | 91° |
| 2026-04-25 21:58 | 41.74478 | -92.83490 | 3184 ft | 44 kts | 91° |
| 2026-04-25 21:58 | 41.74528 | -92.83085 | 3154 ft | 42 kts | 88° |
| 2026-04-25 21:59 | 41.74563 | -92.82687 | 3106 ft | 43 kts | 93° |
| 2026-04-25 21:59 | 41.74571 | -92.82281 | 3023 ft | 44 kts | 98° |
| 2026-04-25 21:59 | 41.74551 | -92.81872 | 2938 ft | 44 kts | 103° |
| 2026-04-25 22:00 | 41.74499 | -92.81069 | 2913 ft | 44 kts | 105° |
| 2026-04-25 22:00 | 41.74464 | -92.80679 | 2870 ft | 41 kts | 103° |
| 2026-04-25 22:00 | 41.74439 | -92.80288 | 2820 ft | 41 kts | 107° |
| 2026-04-25 22:00 | 41.74342 | -92.79933 | 2755 ft | 40 kts | 112° |
| 2026-04-25 22:01 | 41.74279 | -92.79536 | 2679 ft | 44 kts | 109° |
| 2026-04-25 22:01 | 41.74199 | -92.79136 | 2648 ft | 46 kts | 112° |
| 2026-04-25 22:01 | 41.74077 | -92.78724 | 2601 ft | 47 kts | 117° |
| 2026-04-25 22:01 | 41.73994 | -92.78463 | 2602 ft | 45 kts | 118° |
| 2026-04-25 22:02 | 41.73811 | -92.77959 | 2555 ft | 46 kts | 127° |
| 2026-04-25 22:02 | 41.73605 | -92.77643 | 2432 ft | 43 kts | 130° |
| 2026-04-25 22:02 | 41.73410 | -92.77364 | 2303 ft | 40 kts | 130° |
| 2026-04-25 22:02 | 41.73224 | -92.77079 | 2198 ft | 41 kts | 125° |
| 2026-04-25 22:03 | 41.73064 | -92.76780 | 2138 ft | 38 kts | 126° |
| 2026-04-25 22:03 | 41.72873 | -92.76489 | 2069 ft | 40 kts | 129° |
| 2026-04-25 22:03 | 41.72682 | -92.76208 | 1930 ft | 41 kts | 127° |
| 2026-04-25 22:03 | 41.72491 | -92.75910 | 1762 ft | 44 kts | 126° |
| 2026-04-25 22:04 | 41.72278 | -92.75606 | 1545 ft | 46 kts | 127° |
| 2026-04-25 22:04 | 41.72085 | -92.75268 | 1344 ft | 47 kts | 130° |
| 2026-04-25 22:04 | 41.71867 | -92.74939 | 1233 ft | 49 kts | 130° |
| 2026-04-25 22:04 | 41.71647 | -92.74615 | 1197 ft | 49 kts | 132° |
| 2026-04-25 22:05 | 41.71438 | -92.74279 | 1021 ft | 46 kts | 129° |
| 2026-04-25 22:05 | 41.71268 | -92.74021 | 1000 ft | 26 kts | 136° |
| 2026-04-25 22:05 | 41.71194 | -92.73914 | 1000 ft | 11 kts | 133° |
| 2026-04-25 22:05 | 41.71156 | -92.73852 | 1001 ft | 7 kts | 130° |
| 2026-04-25 22:06 | 41.71121 | -92.73804 | 1003 ft | 6 kts | 123° |
| 2026-04-25 22:06 | 41.71092 | -92.73757 | 1004 ft | 8 kts | 127° |
| 2026-04-25 22:06 | 41.71055 | -92.73703 | 1006 ft | 8 kts | 120° |
| 2026-04-25 22:06 | 41.71027 | -92.73658 | 1007 ft | 6 kts | 131° |
| 2026-04-25 22:07 | 41.70996 | -92.73607 | 1007 ft | 7 kts | 130° |
| 2026-04-25 22:07 | 41.70972 | -92.73575 | 1009 ft | 7 kts | 135° |
| 2026-04-25 22:07 | 41.70935 | -92.73516 | 1011 ft | 7 kts | 122° |
| 2026-04-25 22:07 | 41.70902 | -92.73464 | 1013 ft | 7 kts | 131° |
| 2026-04-25 22:08 | 41.70898 | -92.73420 | 1013 ft | 4 kts | 44° |
| 2026-04-25 22:08 | 41.70925 | -92.73387 | 1012 ft | 6 kts | 43° |
| 2026-04-25 22:08 | 41.70937 | -92.73339 | 1010 ft | 7 kts | 125° |
| 2026-04-25 22:08 | 41.70899 | -92.73279 | 1010 ft | 9 kts | 133° |
| 2026-04-25 22:09 | 41.70866 | -92.73230 | 1010 ft | 6 kts | 131° |
| 2026-04-25 22:09 | 41.70838 | -92.73185 | 1010 ft | 7 kts | 128° |
| 2026-04-25 22:09 | 41.70833 | -92.73140 | 1010 ft | 5 kts | 41° |
| 2026-04-25 22:09 | 41.70842 | -92.73121 | 1010 ft | 2 kts | 123° |
| 2026-04-25 22:10 | 41.70841 | -92.73120 | 1010 ft | 0 kts | 129° |